sensor_id;sensor_type;location;lat;lon;timestamp;pressure;altitude;pressure_sealevel;temperature;humidity
76460;BME280;65299;46.084;18.762;2023-04-01T00:00:11;99404.34;;;12.98;72.13
76460;BME280;65299;46.084;18.762;2023-04-01T00:03:12;99402.84;;;13.19;71.00
76460;BME280;65299;46.084;18.762;2023-04-01T00:06:14;99397.31;;;13.16;71.75
76460;BME280;65299;46.084;18.762;2023-04-01T00:09:15;99379.00;;;13.14;72.12
76460;BME280;65299;46.084;18.762;2023-04-01T00:12:15;99393.03;;;13.06;72.50
76460;BME280;65299;46.084;18.762;2023-04-01T00:15:16;99380.75;;;13.19;72.10
76460;BME280;65299;46.084;18.762;2023-04-01T00:18:16;99382.56;;;12.96;72.70
76460;BME280;65299;46.084;18.762;2023-04-01T00:21:18;99380.38;;;12.49;74.08
76460;BME280;65299;46.084;18.762;2023-04-01T00:24:18;99376.88;;;12.76;73.14
76460;BME280;65299;46.084;18.762;2023-04-01T00:27:19;99366.19;;;12.89;71.92
76460;BME280;65299;46.084;18.762;2023-04-01T00:30:20;99368.09;;;12.75;71.39
76460;BME280;65299;46.084;18.762;2023-04-01T00:33:20;99372.56;;;12.66;71.65
76460;BME280;65299;46.084;18.762;2023-04-01T00:36:21;99369.03;;;12.57;71.93
76460;BME280;65299;46.084;18.762;2023-04-01T00:39:22;99372.13;;;12.23;73.39
76460;BME280;65299;46.084;18.762;2023-04-01T00:42:22;99373.94;;;11.96;74.77
76460;BME280;65299;46.084;18.762;2023-04-01T00:48:33;99373.19;;;12.22;74.20
76460;BME280;65299;46.084;18.762;2023-04-01T00:51:34;99364.31;;;12.13;74.32
76460;BME280;65299;46.084;18.762;2023-04-01T00:54:37;99368.34;;;12.11;74.62
76460;BME280;65299;46.084;18.762;2023-04-01T00:57:40;99363.41;;;12.18;73.71
76460;BME280;65299;46.084;18.762;2023-04-01T01:00:43;99356.81;;;12.29;73.41
76460;BME280;65299;46.084;18.762;2023-04-01T01:03:43;99352.09;;;12.39;73.07
76460;BME280;65299;46.084;18.762;2023-04-01T01:13:36;99345.28;;;12.20;72.87
76460;BME280;65299;46.084;18.762;2023-04-01T01:16:50;99347.75;;;12.30;73.34
76460;BME280;65299;46.084;18.762;2023-04-01T01:20:10;99341.63;;;12.57;72.06
76460;BME280;65299;46.084;18.762;2023-04-01T01:33:30;99348.13;;;12.50;72.05
76460;BME280;65299;46.084;18.762;2023-04-01T01:36:34;99350.19;;;12.40;72.25
76460;BME280;65299;46.084;18.762;2023-04-01T01:39:37;99346.97;;;12.43;72.48
76460;BME280;65299;46.084;18.762;2023-04-01T01:42:44;99344.69;;;12.36;72.99
76460;BME280;65299;46.084;18.762;2023-04-01T01:45:50;99332.91;;;12.15;73.75
76460;BME280;65299;46.084;18.762;2023-04-01T01:48:53;99346.19;;;12.29;73.74
76460;BME280;65299;46.084;18.762;2023-04-01T01:51:55;99343.91;;;12.36;73.39
76460;BME280;65299;46.084;18.762;2023-04-01T01:54:57;99345.19;;;12.52;73.09
76460;BME280;65299;46.084;18.762;2023-04-01T01:58:01;99333.38;;;12.17;74.34
76460;BME280;65299;46.084;18.762;2023-04-01T02:01:05;99339.91;;;12.11;74.52
76460;BME280;65299;46.084;18.762;2023-04-01T02:04:07;99344.69;;;11.69;76.63
76460;BME280;65299;46.084;18.762;2023-04-01T02:07:19;99347.34;;;11.82;76.72
76460;BME280;65299;46.084;18.762;2023-04-01T02:10:22;99352.19;;;11.94;76.08
76460;BME280;65299;46.084;18.762;2023-04-01T02:13:30;99344.19;;;11.80;76.39
76460;BME280;65299;46.084;18.762;2023-04-01T02:16:39;99345.28;;;11.93;76.58
76460;BME280;65299;46.084;18.762;2023-04-01T02:19:54;99345.22;;;12.11;75.74
76460;BME280;65299;46.084;18.762;2023-04-01T02:22:57;99350.63;;;12.20;75.20
76460;BME280;65299;46.084;18.762;2023-04-01T02:26:00;99359.78;;;12.27;75.11
76460;BME280;65299;46.084;18.762;2023-04-01T02:29:01;99356.31;;;12.00;75.94
76460;BME280;65299;46.084;18.762;2023-04-01T02:32:04;99353.56;;;12.05;75.76
76460;BME280;65299;46.084;18.762;2023-04-01T02:35:07;99348.94;;;12.24;75.03
76460;BME280;65299;46.084;18.762;2023-04-01T02:38:10;99348.34;;;12.40;74.58
76460;BME280;65299;46.084;18.762;2023-04-01T02:41:11;99353.19;;;12.25;74.71
76460;BME280;65299;46.084;18.762;2023-04-01T02:44:14;99348.06;;;12.28;74.86
76460;BME280;65299;46.084;18.762;2023-04-01T02:47:14;99346.19;;;12.29;74.90
76460;BME280;65299;46.084;18.762;2023-04-01T02:50:15;99343.72;;;12.32;74.47
76460;BME280;65299;46.084;18.762;2023-04-01T02:53:16;99337.63;;;12.18;74.57
76460;BME280;65299;46.084;18.762;2023-04-01T02:56:16;99339.88;;;12.25;73.97
76460;BME280;65299;46.084;18.762;2023-04-01T02:59:17;99326.50;;;12.03;74.57
76460;BME280;65299;46.084;18.762;2023-04-01T03:02:17;99320.19;;;11.99;75.34
76460;BME280;65299;46.084;18.762;2023-04-01T03:05:19;99314.88;;;11.99;75.10
76460;BME280;65299;46.084;18.762;2023-04-01T03:08:19;99311.72;;;11.97;75.30
76460;BME280;65299;46.084;18.762;2023-04-01T03:11:20;99318.59;;;11.98;75.13
76460;BME280;65299;46.084;18.762;2023-04-01T03:14:21;99308.56;;;11.95;74.96
76460;BME280;65299;46.084;18.762;2023-04-01T03:17:21;99302.25;;;11.91;74.64
76460;BME280;65299;46.084;18.762;2023-04-01T03:20:22;99295.34;;;11.90;74.80
76460;BME280;65299;46.084;18.762;2023-04-01T03:23:22;99293.00;;;12.02;74.28
76460;BME280;65299;46.084;18.762;2023-04-01T03:26:24;99287.97;;;12.14;74.19
76460;BME280;65299;46.084;18.762;2023-04-01T03:29:26;99286.59;;;12.03;73.71
76460;BME280;65299;46.084;18.762;2023-04-01T03:32:27;99285.72;;;12.07;73.93
76460;BME280;65299;46.084;18.762;2023-04-01T03:35:27;99272.78;;;12.14;73.54
76460;BME280;65299;46.084;18.762;2023-04-01T03:38:28;99278.56;;;12.30;72.78
76460;BME280;65299;46.084;18.762;2023-04-01T03:41:29;99270.50;;;12.35;72.36
76460;BME280;65299;46.084;18.762;2023-04-01T03:44:31;99269.63;;;12.39;71.93
76460;BME280;65299;46.084;18.762;2023-04-01T03:47:32;99259.69;;;12.18;72.47
76460;BME280;65299;46.084;18.762;2023-04-01T03:50:34;99243.91;;;12.35;72.38
76460;BME280;65299;46.084;18.762;2023-04-01T03:53:34;99241.31;;;12.43;72.31
76460;BME280;65299;46.084;18.762;2023-04-01T03:56:35;99252.19;;;12.20;73.04
76460;BME280;65299;46.084;18.762;2023-04-01T03:59:36;99251.53;;;12.14;73.17
76460;BME280;65299;46.084;18.762;2023-04-01T04:02:36;99254.28;;;12.23;73.08
76460;BME280;65299;46.084;18.762;2023-04-01T04:05:37;99250.03;;;12.22;71.70
76460;BME280;65299;46.084;18.762;2023-04-01T04:08:38;99250.66;;;12.05;72.74
76460;BME280;65299;46.084;18.762;2023-04-01T04:11:39;99250.34;;;12.07;72.45
76460;BME280;65299;46.084;18.762;2023-04-01T04:14:39;99244.06;;;12.03;72.60
76460;BME280;65299;46.084;18.762;2023-04-01T04:17:40;99241.78;;;11.96;72.33
76460;BME280;65299;46.084;18.762;2023-04-01T04:20:45;99240.59;;;12.02;72.24
76460;BME280;65299;46.084;18.762;2023-04-01T04:23:48;99248.09;;;12.00;72.28
76460;BME280;65299;46.084;18.762;2023-04-01T04:26:48;99242.38;;;11.80;72.61
76460;BME280;65299;46.084;18.762;2023-04-01T04:29:49;99243.19;;;11.67;73.51
76460;BME280;65299;46.084;18.762;2023-04-01T04:32:49;99244.00;;;11.48;73.75
76460;BME280;65299;46.084;18.762;2023-04-01T04:35:50;99244.72;;;11.54;73.97
76460;BME280;65299;46.084;18.762;2023-04-01T04:38:51;99256.41;;;11.39;74.02
76460;BME280;65299;46.084;18.762;2023-04-01T04:41:52;99265.47;;;11.06;75.19
76460;BME280;65299;46.084;18.762;2023-04-01T04:44:52;99268.47;;;11.00;76.14
76460;BME280;65299;46.084;18.762;2023-04-01T04:47:52;99275.44;;;10.96;76.43
76460;BME280;65299;46.084;18.762;2023-04-01T04:50:53;99273.09;;;10.94;76.58
76460;BME280;65299;46.084;18.762;2023-04-01T04:53:53;99270.28;;;11.04;76.37
76460;BME280;65299;46.084;18.762;2023-04-01T04:56:54;99280.31;;;11.07;76.58
76460;BME280;65299;46.084;18.762;2023-04-01T04:59:54;99285.16;;;11.05;76.36
76460;BME280;65299;46.084;18.762;2023-04-01T05:02:55;99282.38;;;11.10;76.22
76460;BME280;65299;46.084;18.762;2023-04-01T05:05:55;99282.81;;;11.17;76.27
76460;BME280;65299;46.084;18.762;2023-04-01T05:08:56;99275.59;;;11.04;76.11
76460;BME280;65299;46.084;18.762;2023-04-01T05:11:57;99266.97;;;11.12;76.03
76460;BME280;65299;46.084;18.762;2023-04-01T05:14:57;99268.78;;;11.30;75.41
76460;BME280;65299;46.084;18.762;2023-04-01T05:17:57;99259.69;;;11.50;75.01
76460;BME280;65299;46.084;18.762;2023-04-01T05:20:58;99272.41;;;11.67;74.18
76460;BME280;65299;46.084;18.762;2023-04-01T05:23:58;99267.91;;;11.81;73.55
76460;BME280;65299;46.084;18.762;2023-04-01T05:26:59;99271.72;;;11.88;73.11
76460;BME280;65299;46.084;18.762;2023-04-01T05:29:59;99271.44;;;11.76;73.32
76460;BME280;65299;46.084;18.762;2023-04-01T05:33:00;99279.94;;;11.59;73.95
76460;BME280;65299;46.084;18.762;2023-04-01T05:39:08;99290.75;;;11.49;74.67
76460;BME280;65299;46.084;18.762;2023-04-01T05:42:08;99293.44;;;11.63;74.13
76460;BME280;65299;46.084;18.762;2023-04-01T05:45:09;99298.81;;;11.77;73.73
76460;BME280;65299;46.084;18.762;2023-04-01T05:48:10;99300.16;;;12.01;73.33
76460;BME280;65299;46.084;18.762;2023-04-01T05:51:14;99308.69;;;11.57;74.49
76460;BME280;65299;46.084;18.762;2023-04-01T05:54:14;99290.34;;;11.75;73.83
76460;BME280;65299;46.084;18.762;2023-04-01T05:57:15;99303.94;;;11.54;75.94
76460;BME280;65299;46.084;18.762;2023-04-01T06:00:16;99302.03;;;11.74;74.96
76460;BME280;65299;46.084;18.762;2023-04-01T06:03:17;99306.59;;;11.87;74.23
76460;BME280;65299;46.084;18.762;2023-04-01T06:06:25;99301.16;;;11.92;73.76
76460;BME280;65299;46.084;18.762;2023-04-01T06:09:27;99304.13;;;12.04;73.36
76460;BME280;65299;46.084;18.762;2023-04-01T06:23:40;99319.97;;;12.22;73.76
76460;BME280;65299;46.084;18.762;2023-04-01T06:27:13;99321.84;;;12.22;73.15
76460;BME280;65299;46.084;18.762;2023-04-01T06:41:06;99344.72;;;12.23;73.17
76460;BME280;65299;46.084;18.762;2023-04-01T06:47:50;99355.66;;;12.35;72.93
76460;BME280;65299;46.084;18.762;2023-04-01T06:54:28;99350.50;;;12.38;73.10
76460;BME280;65299;46.084;18.762;2023-04-01T06:57:39;99368.22;;;12.57;72.99
76460;BME280;65299;46.084;18.762;2023-04-01T07:00:44;99363.50;;;12.40;72.38
76460;BME280;65299;46.084;18.762;2023-04-01T07:03:51;99364.41;;;12.49;71.59
76460;BME280;65299;46.084;18.762;2023-04-01T07:06:56;99366.34;;;12.71;71.07
76460;BME280;65299;46.084;18.762;2023-04-01T07:09:58;99363.31;;;12.64;71.00
76460;BME280;65299;46.084;18.762;2023-04-01T07:13:05;99370.41;;;12.68;72.16
76460;BME280;65299;46.084;18.762;2023-04-01T07:16:35;99371.50;;;12.40;71.26
76460;BME280;65299;46.084;18.762;2023-04-01T07:23:00;99373.97;;;12.50;72.26
76460;BME280;65299;46.084;18.762;2023-04-01T07:26:31;99365.88;;;12.01;72.83
76460;BME280;65299;46.084;18.762;2023-04-01T07:29:32;99374.34;;;12.57;71.32
76460;BME280;65299;46.084;18.762;2023-04-01T07:32:42;99368.19;;;12.84;69.54
76460;BME280;65299;46.084;18.762;2023-04-01T07:35:52;99362.72;;;12.53;71.10
76460;BME280;65299;46.084;18.762;2023-04-01T07:42:16;99372.59;;;12.39;72.33
76460;BME280;65299;46.084;18.762;2023-04-01T07:45:31;99375.38;;;12.83;71.54
76460;BME280;65299;46.084;18.762;2023-04-01T08:01:50;99367.34;;;13.55;69.66
76460;BME280;65299;46.084;18.762;2023-04-01T08:05:11;99373.56;;;13.72;69.16
76460;BME280;65299;46.084;18.762;2023-04-01T08:08:40;99367.28;;;13.68;68.30
76460;BME280;65299;46.084;18.762;2023-04-01T08:12:02;99364.09;;;13.58;68.87
76460;BME280;65299;46.084;18.762;2023-04-01T08:21:54;99372.56;;;13.15;71.13
76460;BME280;65299;46.084;18.762;2023-04-01T08:24:59;99370.03;;;13.10;70.30
76460;BME280;65299;46.084;18.762;2023-04-01T08:28:19;99374.56;;;12.96;71.91
76460;BME280;65299;46.084;18.762;2023-04-01T08:31:43;99372.91;;;12.87;70.83
76460;BME280;65299;46.084;18.762;2023-04-01T08:34:47;99377.72;;;12.98;71.79
76460;BME280;65299;46.084;18.762;2023-04-01T08:37:52;99364.56;;;13.15;71.31
76460;BME280;65299;46.084;18.762;2023-04-01T08:47:19;99371.91;;;12.96;70.96
76460;BME280;65299;46.084;18.762;2023-04-01T08:56:47;99370.09;;;13.19;70.89
76460;BME280;65299;46.084;18.762;2023-04-01T09:06:31;99369.78;;;13.20;70.63
76460;BME280;65299;46.084;18.762;2023-04-01T09:16:42;99362.97;;;13.81;67.82
76460;BME280;65299;46.084;18.762;2023-04-01T09:38:09;99375.75;;;14.01;61.96
76460;BME280;65299;46.084;18.762;2023-04-01T09:40:59;99377.81;;;14.04;62.22
76460;BME280;65299;46.084;18.762;2023-04-01T09:44:18;99373.94;;;14.49;62.26
76460;BME280;65299;46.084;18.762;2023-04-01T09:47:42;99383.31;;;14.38;61.42
76460;BME280;65299;46.084;18.762;2023-04-01T10:14:15;99380.28;;;14.62;60.06
76460;BME280;65299;46.084;18.762;2023-04-01T10:24:19;99381.13;;;14.40;60.54
76460;BME280;65299;46.084;18.762;2023-04-01T10:44:15;99398.22;;;14.95;57.89
76460;BME280;65299;46.084;18.762;2023-04-01T10:47:48;99394.44;;;15.05;56.91
76460;BME280;65299;46.084;18.762;2023-04-01T10:51:20;99391.34;;;15.29;57.05
76460;BME280;65299;46.084;18.762;2023-04-01T10:54:43;99394.63;;;15.09;55.95
76460;BME280;65299;46.084;18.762;2023-04-01T11:11:22;99393.06;;;15.59;54.91
76460;BME280;65299;46.084;18.762;2023-04-01T11:14:42;99394.00;;;15.46;54.60
76460;BME280;65299;46.084;18.762;2023-04-01T11:24:50;99388.31;;;15.73;54.10
76460;BME280;65299;46.084;18.762;2023-04-01T11:31:26;99390.38;;;15.59;55.00
76460;BME280;65299;46.084;18.762;2023-04-01T11:44:29;99390.53;;;15.37;54.65
76460;BME280;65299;46.084;18.762;2023-04-01T11:55:06;99393.53;;;15.61;52.60
76460;BME280;65299;46.084;18.762;2023-04-01T11:58:32;99391.78;;;15.65;50.30
76460;BME280;65299;46.084;18.762;2023-04-01T12:01:57;99396.63;;;15.80;51.23
76460;BME280;65299;46.084;18.762;2023-04-01T12:06:05;99399.97;;;16.15;51.08
76460;BME280;65299;46.084;18.762;2023-04-01T12:15:29;99396.16;;;15.78;52.12
76460;BME280;65299;46.084;18.762;2023-04-01T12:32:44;99390.59;;;16.00;52.28
76460;BME280;65299;46.084;18.762;2023-04-01T12:39:15;99403.94;;;16.09;55.33
76460;BME280;65299;46.084;18.762;2023-04-01T12:42:37;99407.19;;;15.68;59.34
76460;BME280;65299;46.084;18.762;2023-04-01T12:55:43;99395.72;;;15.25;59.12
76460;BME280;65299;46.084;18.762;2023-04-01T12:59:11;99379.53;;;15.30;59.37
76460;BME280;65299;46.084;18.762;2023-04-01T13:09:18;99383.69;;;15.91;57.88
76460;BME280;65299;46.084;18.762;2023-04-01T13:15:52;99395.50;;;15.98;56.23
76460;BME280;65299;46.084;18.762;2023-04-01T13:19:10;99400.22;;;15.93;55.33
76460;BME280;65299;46.084;18.762;2023-04-01T13:25:49;99405.09;;;15.91;58.06
76460;BME280;65299;46.084;18.762;2023-04-01T13:29:14;99411.31;;;15.65;57.20
76460;BME280;65299;46.084;18.762;2023-04-01T13:35:42;99413.66;;;15.75;49.72
76460;BME280;65299;46.084;18.762;2023-04-01T13:39:01;99403.38;;;16.41;48.77
76460;BME280;65299;46.084;18.762;2023-04-01T13:42:25;99398.47;;;16.72;47.83
76460;BME280;65299;46.084;18.762;2023-04-01T13:49:02;99409.53;;;16.71;54.72
76460;BME280;65299;46.084;18.762;2023-04-01T13:59:06;99386.91;;;15.75;54.26
76460;BME280;65299;46.084;18.762;2023-04-01T14:12:01;99403.81;;;14.60;53.52
76460;BME280;65299;46.084;18.762;2023-04-01T14:15:07;99398.38;;;15.08;51.74
76460;BME280;65299;46.084;18.762;2023-04-01T14:21:55;99406.38;;;15.76;49.01
76460;BME280;65299;46.084;18.762;2023-04-01T14:31:59;99391.00;;;15.56;52.96
76460;BME280;65299;46.084;18.762;2023-04-01T14:39:00;99376.22;;;15.33;51.91
76460;BME280;65299;46.084;18.762;2023-04-01T14:42:23;99371.59;;;15.85;50.75
76460;BME280;65299;46.084;18.762;2023-04-01T14:48:57;99372.63;;;15.46;51.47
76460;BME280;65299;46.084;18.762;2023-04-01T14:52:17;99379.53;;;15.47;50.64
76460;BME280;65299;46.084;18.762;2023-04-01T14:55:42;99392.59;;;15.65;50.88
76460;BME280;65299;46.084;18.762;2023-04-01T14:58:50;99393.06;;;15.59;50.26
76460;BME280;65299;46.084;18.762;2023-04-01T15:12:16;99413.66;;;15.67;50.08
76460;BME280;65299;46.084;18.762;2023-04-01T15:15:45;99407.03;;;15.64;51.30
76460;BME280;65299;46.084;18.762;2023-04-01T15:32:02;99416.91;;;14.31;57.65
76460;BME280;65299;46.084;18.762;2023-04-01T15:58:22;99425.16;;;13.68;57.63
76460;BME280;65299;46.084;18.762;2023-04-01T16:05:42;99430.75;;;13.58;57.96
76460;BME280;65299;46.084;18.762;2023-04-01T16:18:19;99434.00;;;13.77;58.30
76460;BME280;65299;46.084;18.762;2023-04-01T16:21:48;99441.13;;;14.12;57.59
76460;BME280;65299;46.084;18.762;2023-04-01T16:25:18;99442.25;;;13.45;58.73
76460;BME280;65299;46.084;18.762;2023-04-01T16:28:48;99446.81;;;13.30;58.94
76460;BME280;65299;46.084;18.762;2023-04-01T16:32:41;99459.31;;;13.08;60.33
76460;BME280;65299;46.084;18.762;2023-04-01T16:35:43;99468.78;;;12.87;60.99
76460;BME280;65299;46.084;18.762;2023-04-01T16:45:36;99465.22;;;12.91;61.71
76460;BME280;65299;46.084;18.762;2023-04-01T16:52:13;99448.25;;;12.87;62.62
76460;BME280;65299;46.084;18.762;2023-04-01T16:55:17;99454.59;;;12.78;62.73
76460;BME280;65299;46.084;18.762;2023-04-01T16:58:25;99446.22;;;12.84;62.25
76460;BME280;65299;46.084;18.762;2023-04-01T17:01:41;99462.94;;;12.85;62.05
76460;BME280;65299;46.084;18.762;2023-04-01T17:05:11;99465.63;;;12.85;61.41
76460;BME280;65299;46.084;18.762;2023-04-01T17:08:28;99471.44;;;12.73;61.62
76460;BME280;65299;46.084;18.762;2023-04-01T17:14:59;99475.69;;;12.61;62.25
76460;BME280;65299;46.084;18.762;2023-04-01T17:18:14;99475.38;;;12.35;62.94
76460;BME280;65299;46.084;18.762;2023-04-01T17:35:02;99491.78;;;12.10;63.35
76460;BME280;65299;46.084;18.762;2023-04-01T17:45:10;99503.91;;;11.84;64.35
76460;BME280;65299;46.084;18.762;2023-04-01T17:48:38;99502.41;;;11.78;64.56
76460;BME280;65299;46.084;18.762;2023-04-01T17:58:22;99521.97;;;11.44;65.99
76460;BME280;65299;46.084;18.762;2023-04-01T18:14:48;99533.59;;;11.11;67.11
76460;BME280;65299;46.084;18.762;2023-04-01T18:18:11;99532.56;;;11.07;67.04
76460;BME280;65299;46.084;18.762;2023-04-01T18:21:25;99533.41;;;11.03;67.08
76460;BME280;65299;46.084;18.762;2023-04-01T18:24:33;99526.88;;;10.95;67.24
76460;BME280;65299;46.084;18.762;2023-04-01T18:27:45;99533.31;;;10.89;67.31
76460;BME280;65299;46.084;18.762;2023-04-01T18:31:20;99537.75;;;10.94;67.41
76460;BME280;65299;46.084;18.762;2023-04-01T18:37:50;99544.09;;;10.74;67.93
76460;BME280;65299;46.084;18.762;2023-04-01T18:41:12;99551.00;;;10.75;67.96
76460;BME280;65299;46.084;18.762;2023-04-01T18:47:44;99551.66;;;10.62;68.11
76460;BME280;65299;46.084;18.762;2023-04-01T18:50:53;99559.09;;;10.60;68.26
76460;BME280;65299;46.084;18.762;2023-04-01T18:54:01;99557.00;;;10.57;68.35
76460;BME280;65299;46.084;18.762;2023-04-01T18:57:10;99556.38;;;10.65;67.98
76460;BME280;65299;46.084;18.762;2023-04-01T19:00:36;99559.09;;;10.60;68.11
76460;BME280;65299;46.084;18.762;2023-04-01T19:03:55;99558.41;;;10.49;68.21
76460;BME280;65299;46.084;18.762;2023-04-01T19:07:00;99573.50;;;10.49;68.46
76460;BME280;65299;46.084;18.762;2023-04-01T19:13:33;99586.34;;;10.37;68.86
76460;BME280;65299;46.084;18.762;2023-04-01T19:20:26;99583.69;;;10.42;68.41
76460;BME280;65299;46.084;18.762;2023-04-01T19:24:00;99582.66;;;10.38;68.52
76460;BME280;65299;46.084;18.762;2023-04-01T19:37:37;99591.31;;;10.15;68.95
76460;BME280;65299;46.084;18.762;2023-04-01T19:41:38;99603.22;;;10.17;68.87
76460;BME280;65299;46.084;18.762;2023-04-01T19:47:58;99593.34;;;10.28;68.14
76460;BME280;65299;46.084;18.762;2023-04-01T19:51:15;99601.81;;;10.30;67.96
76460;BME280;65299;46.084;18.762;2023-04-01T20:00:58;99597.69;;;10.14;68.29
76460;BME280;65299;46.084;18.762;2023-04-01T20:04:03;99598.47;;;10.09;68.12
76460;BME280;65299;46.084;18.762;2023-04-01T20:07:31;99608.03;;;10.10;68.28
76460;BME280;65299;46.084;18.762;2023-04-01T20:10:46;99612.09;;;9.92;68.67
76460;BME280;65299;46.084;18.762;2023-04-01T20:17:44;99613.13;;;10.01;68.46
76460;BME280;65299;46.084;18.762;2023-04-01T20:20:59;99614.94;;;10.06;68.41
76460;BME280;65299;46.084;18.762;2023-04-01T20:24:08;99598.00;;;10.02;68.48
76460;BME280;65299;46.084;18.762;2023-04-01T20:27:20;99602.84;;;9.90;68.59
76460;BME280;65299;46.084;18.762;2023-04-01T20:37:00;99602.63;;;9.81;69.18
76460;BME280;65299;46.084;18.762;2023-04-01T20:40:20;99603.94;;;9.84;69.21
76460;BME280;65299;46.084;18.762;2023-04-01T20:43:49;99608.25;;;9.75;69.43
76460;BME280;65299;46.084;18.762;2023-04-01T20:47:17;99611.47;;;9.67;69.81
76460;BME280;65299;46.084;18.762;2023-04-01T20:57:25;99609.00;;;9.80;69.71
76460;BME280;65299;46.084;18.762;2023-04-01T21:00:40;99621.44;;;9.80;69.88
76460;BME280;65299;46.084;18.762;2023-04-01T21:07:50;99629.75;;;9.63;70.51
76460;BME280;65299;46.084;18.762;2023-04-01T21:11:12;99630.78;;;9.67;70.59
76460;BME280;65299;46.084;18.762;2023-04-01T21:17:56;99637.63;;;9.78;70.48
76460;BME280;65299;46.084;18.762;2023-04-01T21:24:35;99641.69;;;9.61;71.11
76460;BME280;65299;46.084;18.762;2023-04-01T21:28:12;99644.88;;;9.63;71.04
76460;BME280;65299;46.084;18.762;2023-04-01T21:31:23;99647.53;;;9.58;71.14
76460;BME280;65299;46.084;18.762;2023-04-01T21:48:31;99647.84;;;9.41;71.53
76460;BME280;65299;46.084;18.762;2023-04-01T22:04:55;99663.25;;;9.34;70.40
76460;BME280;65299;46.084;18.762;2023-04-01T22:14:43;99667.41;;;9.60;69.03
76460;BME280;65299;46.084;18.762;2023-04-01T22:18:24;99664.75;;;9.60;68.93
76460;BME280;65299;46.084;18.762;2023-04-01T22:21:45;99671.38;;;9.58;68.89
76460;BME280;65299;46.084;18.762;2023-04-01T22:28:07;99668.09;;;9.81;67.83
76460;BME280;65299;46.084;18.762;2023-04-01T22:31:11;99689.00;;;9.87;67.07
76460;BME280;65299;46.084;18.762;2023-04-01T22:34:49;99675.97;;;9.96;66.74
76460;BME280;65299;46.084;18.762;2023-04-01T22:41:18;99673.28;;;10.01;66.26
76460;BME280;65299;46.084;18.762;2023-04-01T22:44:57;99678.03;;;10.04;65.86
76460;BME280;65299;46.084;18.762;2023-04-01T22:48:10;99679.88;;;10.14;65.34
76460;BME280;65299;46.084;18.762;2023-04-01T22:51:22;99679.84;;;10.19;65.47
76460;BME280;65299;46.084;18.762;2023-04-01T22:54:51;99677.78;;;10.11;65.42
76460;BME280;65299;46.084;18.762;2023-04-01T22:58:08;99684.66;;;10.07;65.47
76460;BME280;65299;46.084;18.762;2023-04-01T23:01:16;99684.94;;;10.05;65.22
76460;BME280;65299;46.084;18.762;2023-04-01T23:04:31;99685.72;;;10.11;65.09
76460;BME280;65299;46.084;18.762;2023-04-01T23:07:56;99686.78;;;10.10;64.66
76460;BME280;65299;46.084;18.762;2023-04-01T23:11:08;99683.00;;;10.21;64.25
76460;BME280;65299;46.084;18.762;2023-04-01T23:17:51;99696.50;;;10.24;63.52
76460;BME280;65299;46.084;18.762;2023-04-01T23:24:33;99706.56;;;10.27;63.99
76460;BME280;65299;46.084;18.762;2023-04-01T23:27:47;99705.69;;;9.88;65.31
76460;BME280;65299;46.084;18.762;2023-04-01T23:30:52;99719.06;;;9.63;66.38
76460;BME280;65299;46.084;18.762;2023-04-01T23:33:58;99714.31;;;9.50;67.08
76460;BME280;65299;46.084;18.762;2023-04-01T23:37:10;99712.53;;;9.05;68.26
76460;BME280;65299;46.084;18.762;2023-04-01T23:40:13;99715.72;;;8.97;68.37
76460;BME280;65299;46.084;18.762;2023-04-01T23:43:21;99716.25;;;8.94;69.11
76460;BME280;65299;46.084;18.762;2023-04-01T23:46:23;99725.25;;;8.93;68.28
76460;BME280;65299;46.084;18.762;2023-04-01T23:49:30;99721.56;;;8.89;68.07
76460;BME280;65299;46.084;18.762;2023-04-01T23:52:47;99718.09;;;8.78;68.47
76460;BME280;65299;46.084;18.762;2023-04-01T23:55:48;99724.72;;;9.01;67.94
76460;BME280;65299;46.084;18.762;2023-04-01T23:58:52;99728.41;;;9.15;67.28
